DXB weather

Dubai International Airport
Dubai, Dubai Emirate, United Arab Emirates

Public forecast

Using degrees Celsius for public forecast. Weather courtesy of forecast.io.

METAR (pilot weather report)

Retrieved 2018/10/20 12:00 UTC (21 minutes ago):

OMDB 201200Z 33013KT CAVOK 33/18 Q1012 NOSIG

TAF (pilot weather forecast)

Retrieved 2018/10/20 12:00 UTC (21 minutes ago):

TAF OMDB 201056Z 2012/2118 34013KT CAVOK PROB30 TEMPO 2012/2015 VRB20G35KT 3000 BLDU FEW040TCU BECMG 2014/2016 10007KT BECMG 2108/2110 34013KT BECMG 2115/2117 09005KT